Time;durP1;ratioP1;P1;durP2;ratioP2;P2;SDS_P1;SDS_P2;PMS_P1;PMS_P2;Temp;Humidity;BMP_temperature;BMP_pressure;BME280_temperature;BME280_humidity;BME280_pressure;Samples;Min_cycle;Max_cycle;Signal;HPM_P1;HPM_P2
2023/05/30 00:01:20;;;;;;;10.70;3.58;;;;;;;10.27;71.78;102427.38;5063614;28;20031;-68
2023/05/30 00:03:47;;;;;;;14.13;4.03;;;;;;;10.25;72.42;102422.13;5063078;28;20131;-68
2023/05/30 00:06:13;;;;;;;10.05;4.03;;;;;;;10.28;72.23;102427.34;5060796;28;20028;-69
2023/05/30 00:08:43;;;;;;;12.80;3.70;;;;;;;10.19;72.76;102430.19;5060083;28;20021;-69
2023/05/30 00:11:10;;;;;;;12.23;3.83;;;;;;;10.23;72.96;102431.88;5060603;28;20040;-68
2023/05/30 00:13:36;;;;;;;10.98;4.18;;;;;;;10.16;73.00;102439.16;5055842;28;20028;-69
2023/05/30 00:16:03;;;;;;;14.38;3.92;;;;;;;10.09;73.40;102432.22;5041596;28;20547;-68
2023/05/30 00:18:36;;;;;;;11.57;3.47;;;;;;;10.13;73.91;102428.56;5060699;28;20170;-68
2023/05/30 00:21:05;;;;;;;13.32;3.97;;;;;;;9.98;74.44;102437.75;5061597;28;20024;-67
2023/05/30 00:23:32;;;;;;;11.02;3.97;;;;;;;10.01;74.46;102433.31;5061055;28;20105;-69
2023/05/30 00:25:59;;;;;;;12.27;3.90;;;;;;;9.91;75.16;102441.50;5060899;28;20052;-68
2023/05/30 00:28:25;;;;;;;12.90;4.00;;;;;;;9.90;74.97;102436.19;5061335;28;20501;-68
2023/05/30 00:30:51;;;;;;;15.43;4.45;;;;;;;9.82;75.81;102435.50;5057343;28;20041;-68
2023/05/30 00:33:17;;;;;;;13.02;3.80;;;;;;;9.81;75.91;102437.28;5060800;28;20028;-68
2023/05/30 00:35:42;;;;;;;14.32;4.40;;;;;;;9.87;75.91;102436.28;5042807;28;20285;-68
2023/05/30 00:38:07;;;;;;;14.82;4.45;;;;;;;9.80;76.58;102434.66;5044356;28;20163;-68
2023/05/30 00:40:33;;;;;;;15.07;4.20;;;;;;;9.76;76.68;102438.31;5059745;28;20027;-68
2023/05/30 00:42:58;;;;;;;14.07;4.28;;;;;;;9.76;77.41;102439.16;5061683;28;20138;-68
2023/05/30 00:45:23;;;;;;;13.15;4.13;;;;;;;9.67;77.92;102437.59;5044354;28;20021;-68
2023/05/30 00:47:51;;;;;;;13.70;4.35;;;;;;;9.56;78.32;102431.63;5060758;28;20027;-68
2023/05/30 00:50:18;;;;;;;15.05;4.38;;;;;;;9.60;78.39;102437.75;5044551;28;20120;-68
2023/05/30 00:52:45;;;;;;;13.07;4.13;;;;;;;9.60;78.76;102440.41;5063643;28;20039;-68
2023/05/30 00:55:10;;;;;;;15.00;4.55;;;;;;;9.63;78.82;102445.66;5062564;28;20060;-68
2023/05/30 00:57:36;;;;;;;12.02;3.97;;;;;;;9.59;79.45;102441.31;5061191;28;20057;-69
2023/05/30 01:00:05;;;;;;;7.80;3.47;;;;;;;9.50;79.83;102446.84;5063459;28;20046;-69
2023/05/30 01:02:34;;;;;;;17.73;4.85;;;;;;;9.51;79.89;102449.44;5065393;28;20502;-70
2023/05/30 01:05:03;;;;;;;13.98;4.35;;;;;;;9.51;80.32;102453.91;5066744;28;20009;-67
2023/05/30 01:07:29;;;;;;;12.23;4.20;;;;;;;9.48;80.44;102442.41;5053556;28;20115;-69
2023/05/30 01:09:55;;;;;;;14.80;4.05;;;;;;;9.31;81.33;102441.88;5063468;28;20050;-68
2023/05/30 01:12:34;;;;;;;11.60;4.35;;;;;;;9.41;80.98;102454.09;5066103;28;20030;-67
2023/05/30 01:15:05;;;;;;;13.38;4.35;;;;;;;9.41;81.15;102454.09;5059439;28;20126;-67
2023/05/30 01:17:57;;;;;;;12.93;4.30;;;;;;;9.38;81.38;102446.16;5056800;28;20132;-68
2023/05/30 01:20:24;;;;;;;15.95;4.45;;;;;;;9.41;81.20;102448.78;5065435;28;20071;-69
2023/05/30 01:23:27;;;;;;;14.02;4.57;;;;;;;9.33;81.29;102449.84;5064984;28;20210;-69
2023/05/30 01:26:14;;;;;;;14.65;4.22;;;;;;;9.28;81.91;102444.63;5055089;28;20078;-69
2023/05/30 01:28:42;;;;;;;13.30;4.28;;;;;;;9.31;82.42;102441.88;5066173;28;20214;-68
2023/05/30 01:31:09;;;;;;;12.90;4.13;;;;;;;9.16;82.96;102444.88;5065049;28;20025;-69
2023/05/30 01:33:36;;;;;;;15.40;4.50;;;;;;;9.12;83.35;102454.66;5065843;28;20035;-69
2023/05/30 01:36:02;;;;;;;14.77;4.45;;;;;;;9.15;83.30;102453.72;5060371;28;20395;-70
2023/05/30 01:38:27;;;;;;;14.85;4.60;;;;;;;9.14;83.58;102450.19;5057381;28;20032;-70
2023/05/30 01:40:56;;;;;;;14.45;4.30;;;;;;;9.13;83.83;102452.88;5063597;28;20311;-70
2023/05/30 01:43:35;;;;;;;12.05;3.97;;;;;;;9.22;83.12;102458.00;5061739;28;20077;-69
2023/05/30 01:46:33;;;;;;;15.05;4.57;;;;;;;9.16;83.19;102456.34;5054547;28;20475;-69
2023/05/30 01:49:26;;;;;;;17.25;5.05;;;;;;;9.07;83.94;102460.94;5066163;28;20379;-69
2023/05/30 01:52:00;;;;;;;10.48;3.92;;;;;;;9.08;84.25;102465.38;5064818;28;20040;-69
2023/05/30 01:54:28;;;;;;;13.68;4.28;;;;;;;9.11;84.29;102465.28;5064033;28;20020;-69
2023/05/30 01:57:05;;;;;;;13.30;4.43;;;;;;;8.98;85.33;102464.66;5064486;28;20024;-69
2023/05/30 01:59:31;;;;;;;13.88;4.35;;;;;;;8.89;85.50;102465.69;5064318;28;20028;-68
2023/05/30 02:01:59;;;;;;;15.48;4.97;;;;;;;8.91;85.71;102468.34;5065601;28;20159;-69
2023/05/30 02:04:24;;;;;;;13.90;4.80;;;;;;;8.89;85.94;102464.81;5065718;28;20032;-68
2023/05/30 02:06:50;;;;;;;17.58;4.78;;;;;;;8.89;85.50;102468.34;5064362;28;20028;-69
2023/05/30 02:09:15;;;;;;;14.55;4.45;;;;;;;8.88;86.19;102474.56;5064754;28;20332;-68
2023/05/30 02:11:41;;;;;;;15.00;4.43;;;;;;;8.89;86.20;102468.34;5064653;28;20173;-68
2023/05/30 02:14:07;;;;;;;14.63;4.55;;;;;;;8.80;86.83;102470.31;5062299;28;20073;-68
2023/05/30 02:16:32;;;;;;;17.95;4.65;;;;;;;8.85;86.65;102474.63;5063347;28;20491;-69
2023/05/30 02:18:58;;;;;;;13.18;4.55;;;;;;;8.70;87.37;102474.91;5064710;28;20039;-69
2023/05/30 02:21:23;;;;;;;13.10;5.10;;;;;;;8.64;87.71;102482.97;5064374;28;20039;-69
2023/05/30 02:23:49;;;;;;;17.73;4.72;;;;;;;8.69;87.60;102468.72;5063265;28;20028;-69
2023/05/30 02:26:15;;;;;;;17.40;5.13;;;;;;;8.65;88.31;102475.00;5062602;28;20482;-69
2023/05/30 02:28:40;;;;;;;15.70;5.03;;;;;;;8.58;88.63;102481.28;5065504;28;20043;-69
2023/05/30 02:31:06;;;;;;;19.05;5.65;;;;;;;8.51;89.41;102478.75;5062524;28;20185;-69
2023/05/30 02:33:31;;;;;;;17.70;4.78;;;;;;;8.60;88.63;102479.47;5046166;28;20032;-69
2023/05/30 02:35:56;;;;;;;13.02;4.47;;;;;;;8.52;89.27;102478.72;5057835;28;20039;-69
2023/05/30 02:38:22;;;;;;;13.20;5.13;;;;;;;8.52;89.41;102484.03;5064072;28;20029;-69
2023/05/30 02:40:47;;;;;;;13.30;4.63;;;;;;;8.46;89.63;102481.50;5063789;28;20028;-69
2023/05/30 02:43:13;;;;;;;12.23;4.63;;;;;;;8.56;89.19;102474.25;5063660;28;20047;-68
2023/05/30 02:45:38;;;;;;;13.30;4.88;;;;;;;8.47;89.73;102472.63;5042342;28;20467;-69
2023/05/30 02:48:05;;;;;;;13.23;4.80;;;;;;;8.42;89.88;102474.47;5055898;28;20038;-68
2023/05/30 02:50:31;;;;;;;15.30;4.90;;;;;;;8.30;90.74;102475.50;5064138;28;20028;-69
2023/05/30 02:52:56;;;;;;;15.32;5.65;;;;;;;8.35;90.61;102476.31;5061816;28;20047;-69
2023/05/30 02:55:21;;;;;;;17.25;5.18;;;;;;;8.35;90.69;102470.13;5062685;28;20631;-69
2023/05/30 02:57:47;;;;;;;12.90;5.07;;;;;;;8.32;90.76;102467.50;5063955;28;20033;-70
2023/05/30 03:00:13;;;;;;;13.45;5.53;;;;;;;8.23;90.90;102468.53;5044885;28;20181;-68
2023/05/30 03:02:39;;;;;;;15.63;5.50;;;;;;;8.27;91.19;102474.66;5045677;28;20035;-69
2023/05/30 03:05:05;;;;;;;14.02;4.65;;;;;;;8.34;90.43;102474.56;5043025;28;20180;-68
2023/05/30 03:07:32;;;;;;;14.85;4.80;;;;;;;8.23;91.19;102469.44;5056485;28;20020;-70
2023/05/30 03:09:57;;;;;;;11.95;5.30;;;;;;;8.22;91.40;102469.44;5061879;28;20043;-68
2023/05/30 03:12:23;;;;;;;17.77;5.95;;;;;;;8.15;91.80;102473.97;5062171;28;20040;-69
2023/05/30 03:14:48;;;;;;;15.40;5.38;;;;;;;8.07;91.97;102478.50;5059526;28;21107;-69
2023/05/30 03:17:15;;;;;;;16.05;5.65;;;;;;;8.11;92.01;102477.56;5062924;28;20430;-69
2023/05/30 03:19:41;;;;;;;15.23;5.13;;;;;;;8.08;92.78;102476.72;5045442;28;20074;-69
2023/05/30 03:22:07;;;;;;;18.83;5.60;;;;;;;8.04;92.95;102481.19;5061642;28;20289;-69
2023/05/30 03:24:33;;;;;;;17.73;5.60;;;;;;;8.09;92.60;102479.34;5063781;28;20660;-70
2023/05/30 03:26:59;;;;;;;13.32;5.07;;;;;;;8.04;93.07;102496.25;5043636;28;20147;-69
2023/05/30 03:29:25;;;;;;;14.57;4.97;;;;;;;8.07;92.99;102491.78;5063297;28;20086;-69
2023/05/30 03:31:51;;;;;;;13.68;5.35;;;;;;;8.02;93.45;102490.06;5045444;28;20023;-69
2023/05/30 03:34:16;;;;;;;14.88;5.10;;;;;;;8.01;93.26;102493.63;5061559;28;20025;-69
2023/05/30 03:36:42;;;;;;;16.17;5.45;;;;;;;8.03;93.65;102497.16;5061823;28;20036;-68
2023/05/30 03:39:07;;;;;;;17.50;6.22;;;;;;;8.02;93.53;102495.38;5062340;28;20078;-69
2023/05/30 03:41:33;;;;;;;13.75;5.15;;;;;;;8.03;94.00;102499.81;5064798;28;20028;-69
2023/05/30 03:43:59;;;;;;;15.13;5.68;;;;;;;8.07;93.65;102502.38;5063888;28;20024;-69
2023/05/30 03:46:24;;;;;;;13.98;5.15;;;;;;;7.98;93.90;102494.53;5062725;28;20063;-69
2023/05/30 03:48:50;;;;;;;14.27;5.93;;;;;;;7.95;94.32;102506.06;5065040;28;20016;-70
2023/05/30 03:51:15;;;;;;;17.80;6.30;;;;;;;8.00;94.19;102513.97;5063740;28;20506;-68
2023/05/30 03:53:42;;;;;;;16.02;6.25;;;;;;;8.05;94.23;102505.94;5063737;28;20060;-69
2023/05/30 03:56:08;;;;;;;18.17;5.85;;;;;;;8.02;94.48;102506.84;5063987;28;20028;-69
2023/05/30 03:58:34;;;;;;;14.50;5.40;;;;;;;8.01;94.58;102502.44;5049530;28;20039;-68
2023/05/30 04:01:03;;;;;;;17.02;5.95;;;;;;;8.03;94.69;102507.75;5065447;28;20074;-69
2023/05/30 04:03:29;;;;;;;17.33;6.10;;;;;;;8.11;94.49;102522.66;5063502;28;20086;-69
2023/05/30 04:06:01;;;;;;;16.98;5.78;;;;;;;8.07;94.76;102514.72;5064455;28;20056;-68
2023/05/30 04:08:26;;;;;;;14.90;5.70;;;;;;;8.05;94.86;102511.25;5064450;28;20029;-69
2023/05/30 04:10:52;;;;;;;17.30;5.70;;;;;;;8.12;94.82;102515.56;5063809;28;20016;-69
2023/05/30 04:13:18;;;;;;;14.75;6.30;;;;;;;8.19;94.72;102509.25;5063971;28;20430;-69
2023/05/30 04:15:43;;;;;;;19.15;6.00;;;;;;;8.19;94.48;102511.91;5063503;28;20482;-69
2023/05/30 04:18:09;;;;;;;20.50;6.65;;;;;;;8.25;94.57;102509.19;5064317;28;20266;-69
2023/05/30 04:20:34;;;;;;;17.08;6.60;;;;;;;8.25;94.66;102514.50;5060729;28;20292;-69
2023/05/30 04:22:59;;;;;;;11.98;6.25;;;;;;;8.34;94.33;102517.00;5045099;28;20335;-69
2023/05/30 04:25:25;;;;;;;18.58;6.10;;;;;;;8.36;93.81;102511.66;5059078;28;20120;-69
2023/05/30 04:27:50;;;;;;;18.25;6.63;;;;;;;8.41;93.97;102515.19;5060701;28;20161;-70
2023/05/30 04:30:16;;;;;;;17.40;6.07;;;;;;;8.53;93.42;102517.66;5056163;28;20028;-69
2023/05/30 04:32:42;;;;;;;20.02;6.47;;;;;;;8.44;93.65;102516.03;5044607;28;20098;-68
2023/05/30 04:35:08;;;;;;;17.67;6.75;;;;;;;8.44;94.18;102510.72;5064674;28;20040;-68
2023/05/30 04:37:38;;;;;;;15.43;6.55;;;;;;;8.57;93.96;102514.06;5068359;28;20528;-68
2023/05/30 04:40:12;;;;;;;15.45;6.72;;;;;;;8.60;93.35;102521.06;5069180;28;20021;-67
2023/05/30 04:42:38;;;;;;;;;;;;;;;8.75;91.51;102517.31;5066848;28;20135;-68
2023/05/30 04:45:05;;;;;;;16.20;6.50;;;;;;;8.77;92.79;102516.34;5065817;28;20339;-69
2023/05/30 04:47:30;;;;;;;15.75;7.07;;;;;;;8.80;92.97;102518.97;5067598;28;20600;-68
2023/05/30 04:50:00;;;;;;;15.35;7.05;;;;;;;8.81;92.72;102515.41;5066887;28;20047;-69
2023/05/30 04:52:26;;;;;;;15.57;7.07;;;;;;;8.90;92.42;102514.38;5067369;28;20027;-69
2023/05/30 04:54:52;;;;;;;16.73;6.63;;;;;;;8.90;92.53;102511.72;5062538;28;20122;-68
2023/05/30 04:57:18;;;;;;;14.90;6.85;;;;;;;8.90;92.42;102504.66;5066738;28;20503;-68
2023/05/30 04:59:44;;;;;;;15.18;7.68;;;;;;;8.95;92.50;102509.88;5063746;28;20029;-69
2023/05/30 05:02:10;;;;;;;14.38;7.03;;;;;;;9.10;91.72;102517.56;5067300;28;20111;-68
2023/05/30 05:04:36;;;;;;;14.65;7.07;;;;;;;9.18;92.07;102512.09;5064372;28;20446;-68
2023/05/30 05:07:01;;;;;;;16.10;7.22;;;;;;;9.30;91.65;102513.66;5068178;28;20181;-68
2023/05/30 05:09:26;;;;;;;17.63;7.10;;;;;;;9.37;90.90;102513.53;5067686;28;20470;-68
2023/05/30 05:11:53;;;;;;;16.48;7.05;;;;;;;9.44;90.16;102512.47;5068735;28;20287;-68
2023/05/30 05:14:18;;;;;;;15.63;6.80;;;;;;;9.63;90.53;102505.03;5047656;28;20020;-68
2023/05/30 05:16:44;;;;;;;15.68;7.63;;;;;;;9.76;89.64;102505.66;5065497;28;20067;-69
2023/05/30 05:19:09;;;;;;;19.88;7.38;;;;;;;9.87;87.95;102500.97;5067057;28;20020;-68
2023/05/30 05:21:36;;;;;;;16.15;7.45;;;;;;;10.08;87.82;102504.09;5048457;28;20032;-68
2023/05/30 05:24:02;;;;;;;16.77;7.53;;;;;;;10.27;86.61;102494.78;5065993;28;20731;-67
2023/05/30 05:26:28;;;;;;;16.38;6.78;;;;;;;10.40;85.48;102496.25;5064824;28;20060;-68
2023/05/30 05:28:53;;;;;;;16.88;7.05;;;;;;;10.46;84.72;102506.75;5063867;28;20562;-69
2023/05/30 05:31:18;;;;;;;16.25;6.75;;;;;;;10.57;83.31;102508.28;5064323;28;20398;-68
2023/05/30 05:33:44;;;;;;;13.95;6.38;;;;;;;10.63;82.23;102500.16;5061528;28;20028;-69
2023/05/30 05:36:10;;;;;;;14.05;6.47;;;;;;;10.60;81.45;102490.44;5047034;28;20024;-71
2023/05/30 05:38:36;;;;;;;16.20;6.45;;;;;;;10.58;80.75;102508.25;5065751;28;20151;-68
2023/05/30 05:41:04;;;;;;;12.05;5.63;;;;;;;10.64;80.67;102512.56;5067705;28;20538;-68
2023/05/30 05:43:29;;;;;;;12.88;5.70;;;;;;;10.66;80.52;102508.94;5045022;28;20033;-68
2023/05/30 05:45:55;;;;;;;11.88;5.72;;;;;;;10.77;80.05;102503.34;5064965;28;20570;-68
2023/05/30 05:48:21;;;;;;;16.08;6.35;;;;;;;10.68;79.50;102496.47;5044836;28;20020;-67
2023/05/30 05:50:46;;;;;;;18.33;6.60;;;;;;;10.78;78.69;102512.19;5060717;28;20493;-67
2023/05/30 05:53:12;;;;;;;16.55;6.57;;;;;;;10.75;78.75;102510.50;5063733;28;20493;-67
2023/05/30 05:55:37;;;;;;;14.30;6.15;;;;;;;10.88;78.33;102513.75;5065127;28;20400;-67
2023/05/30 05:58:02;;;;;;;15.38;5.90;;;;;;;10.93;77.98;102514.50;5064984;28;20154;-67
2023/05/30 06:00:29;;;;;;;11.93;6.25;;;;;;;10.87;77.46;102519.97;5061224;28;20493;-68
2023/05/30 06:02:55;;;;;;;15.23;6.30;;;;;;;10.71;77.80;102524.81;5062870;28;20296;-67
2023/05/30 06:05:20;;;;;;;16.65;6.97;;;;;;;10.54;78.20;102521.69;5063273;28;20043;-67
2023/05/30 06:07:46;;;;;;;13.70;7.07;;;;;;;10.51;79.05;102519.97;5064363;28;20080;-67
2023/05/30 06:10:11;;;;;;;12.52;6.35;;;;;;;10.71;79.04;102522.16;5064437;28;20078;-67
2023/05/30 06:12:37;;;;;;;13.93;6.35;;;;;;;10.79;78.19;102513.97;5047342;28;20175;-67
2023/05/30 06:15:02;;;;;;;13.70;6.68;;;;;;;11.02;77.96;102524.03;5064136;28;20037;-68
2023/05/30 06:17:28;;;;;;;11.98;5.95;;;;;;;11.35;76.29;102525.78;5065417;28;20044;-68
2023/05/30 06:19:54;;;;;;;14.77;6.35;;;;;;;11.53;75.39;102519.06;5071007;28;20316;-67
2023/05/30 06:22:20;;;;;;;17.58;6.40;;;;;;;11.48;74.22;102524.53;5069196;28;20459;-67
2023/05/30 06:24:46;;;;;;;11.95;6.65;;;;;;;11.41;74.10;102533.66;5065940;28;20032;-67
2023/05/30 06:27:12;;;;;;;11.27;6.35;;;;;;;11.38;74.16;102535.50;5065577;28;20585;-67
2023/05/30 06:29:37;;;;;;;14.18;6.50;;;;;;;11.28;74.04;102520.66;5062100;28;20359;-67
2023/05/30 06:32:03;;;;;;;16.42;6.85;;;;;;;11.34;74.52;102536.50;5065451;28;20073;-68
2023/05/30 06:34:29;;;;;;;12.48;6.40;;;;;;;11.45;74.09;102537.97;5062750;28;20166;-66
2023/05/30 06:36:55;;;;;;;16.77;6.95;;;;;;;11.46;73.38;102530.84;5048321;28;20031;-68
2023/05/30 06:39:20;;;;;;;11.43;6.75;;;;;;;11.53;73.57;102528.88;5064510;28;20024;-67
2023/05/30 06:41:46;;;;;;;15.82;6.85;;;;;;;11.76;73.04;102522.88;5066170;28;20402;-67
2023/05/30 06:44:11;;;;;;;18.20;7.30;;;;;;;11.90;72.89;102523.38;5056129;28;20058;-68
2023/05/30 06:46:37;;;;;;;13.63;6.80;;;;;;;11.91;72.81;102530.47;5051671;28;20071;-68
2023/05/30 06:49:03;;;;;;;15.18;7.10;;;;;;;11.94;72.57;102525.91;5060565;28;20659;-67
2023/05/30 06:51:28;;;;;;;15.60;6.85;;;;;;;11.90;71.49;102529.59;5057470;28;20584;-67
2023/05/30 06:53:53;;;;;;;10.75;6.43;;;;;;;12.02;72.07;102527.47;5057254;28;20077;-67
2023/05/30 06:56:19;;;;;;;16.05;7.40;;;;;;;12.11;71.49;102532.53;5055238;28;20020;-68
2023/05/30 06:58:44;;;;;;;13.80;6.25;;;;;;;12.28;71.52;102530.22;5058252;28;20039;-67
2023/05/30 07:01:10;;;;;;;12.88;7.03;;;;;;;12.28;71.21;102542.69;5038248;28;20159;-67
2023/05/30 07:03:36;;;;;;;14.23;6.95;;;;;;;12.35;71.48;102530.91;5061347;28;21201;-68
2023/05/30 07:06:02;;;;;;;13.63;6.47;;;;;;;12.27;70.82;102549.84;5062894;28;20050;-68
2023/05/30 07:08:27;;;;;;;14.38;6.90;;;;;;;12.51;70.49;102542.00;5050033;28;20231;-66
2023/05/30 07:10:53;;;;;;;13.80;6.68;;;;;;;12.59;69.86;102547.97;5062095;28;20032;-67
2023/05/30 07:13:18;;;;;;;12.57;6.35;;;;;;;12.34;70.14;102550.53;5055716;28;20027;-67
2023/05/30 07:15:44;;;;;;;16.55;7.20;;;;;;;12.45;70.07;102548.38;5062001;28;20523;-67
2023/05/30 07:18:09;;;;;;;13.15;6.80;;;;;;;12.53;69.64;102538.31;5062296;28;20044;-67
2023/05/30 07:20:34;;;;;;;12.95;6.70;;;;;;;12.46;69.43;102529.66;5061215;28;20028;-68
2023/05/30 07:23:00;;;;;;;15.80;7.00;;;;;;;12.55;69.33;102540.97;5043070;28;20119;-67
2023/05/30 07:25:25;;;;;;;14.55;6.68;;;;;;;12.64;69.63;102552.22;5060878;28;20471;-67
2023/05/30 07:27:51;;;;;;;14.07;6.95;;;;;;;12.76;68.68;102548.28;5061380;28;20103;-68
2023/05/30 07:30:16;;;;;;;14.20;6.90;;;;;;;12.94;68.98;102558.34;5042836;28;20123;-68
2023/05/30 07:32:42;;;;;;;14.07;6.60;;;;;;;13.28;66.72;102548.34;5042905;28;20429;-69
2023/05/30 07:35:07;;;;;;;13.60;7.15;;;;;;;13.50;66.40;102545.75;5060148;28;20035;-68
2023/05/30 07:37:36;;;;;;;11.52;6.60;;;;;;;13.72;65.35;102560.13;5061080;28;20118;-68
2023/05/30 07:40:05;;;;;;;9.25;5.70;;;;;;;14.45;63.98;102543.91;5059842;28;20032;-68
2023/05/30 07:42:32;;;;;;;10.77;6.28;;;;;;;14.50;61.76;102548.22;5061497;28;20256;-68
2023/05/30 07:44:57;;;;;;;12.13;6.43;;;;;;;14.53;61.52;102556.16;5059985;28;20029;-66
2023/05/30 07:47:22;;;;;;;14.90;6.57;;;;;;;14.37;61.48;102554.03;5061189;28;20036;-67
2023/05/30 07:49:48;;;;;;;11.55;6.63;;;;;;;14.40;61.71;102555.75;5057508;28;20032;-67
2023/05/30 07:52:13;;;;;;;12.52;6.80;;;;;;;14.29;61.44;102556.16;5060066;28;20281;-68
2023/05/30 07:54:38;;;;;;;13.95;6.88;;;;;;;14.26;62.03;102550.94;5057591;28;20046;-68
2023/05/30 07:57:05;;;;;;;17.45;7.18;;;;;;;14.42;61.95;102544.03;5062654;28;20024;-68
2023/05/30 07:59:31;;;;;;;11.60;6.43;;;;;;;14.74;60.74;102549.06;5040467;28;20040;-68
2023/05/30 08:01:56;;;;;;;11.75;6.55;;;;;;;15.23;59.31;102541.63;5061948;28;20441;-69
2023/05/30 08:04:22;;;;;;;11.02;6.30;;;;;;;15.53;58.05;102544.75;5055474;28;20199;-68
2023/05/30 08:06:47;;;;;;;10.23;5.75;;;;;;;15.58;57.43;102542.72;5060006;28;20115;-68
2023/05/30 08:09:13;;;;;;;11.43;6.25;;;;;;;15.23;57.61;102547.00;5062898;28;20056;-68
2023/05/30 08:11:38;;;;;;;12.05;6.78;;;;;;;15.04;58.00;102553.13;5054553;28;20028;-68
2023/05/30 08:14:03;;;;;;;11.13;5.70;;;;;;;14.91;58.41;102541.19;5041761;28;20059;-68
2023/05/30 08:16:29;;;;;;;12.90;6.32;;;;;;;15.38;57.36;102541.84;5060302;28;20554;-69
2023/05/30 08:18:56;;;;;;;11.70;6.43;;;;;;;15.37;56.54;102536.50;5061073;28;20101;-69
2023/05/30 08:21:21;;;;;;;15.80;6.57;;;;;;;15.13;57.04;102536.66;5059871;28;20514;-68
2023/05/30 08:23:47;;;;;;;9.85;5.75;;;;;;;15.17;57.43;102540.06;5055723;28;20115;-68
2023/05/30 08:26:12;;;;;;;12.80;6.60;;;;;;;15.27;56.51;102548.59;5061675;28;20151;-68
2023/05/30 08:28:38;;;;;;;8.82;6.03;;;;;;;15.43;56.19;102545.19;5061717;28;20074;-68
2023/05/30 08:31:04;;;;;;;10.32;6.38;;;;;;;16.18;55.29;102532.84;5062346;28;20370;-69
2023/05/30 08:33:30;;;;;;;14.32;6.28;;;;;;;17.45;51.82;102539.91;5060665;28;20142;-68
2023/05/30 08:35:55;;;;;;;11.70;6.10;;;;;;;18.37;48.27;102524.09;5061221;28;20032;-68
2023/05/30 08:38:20;;;;;;;9.05;5.53;;;;;;;19.24;46.40;102531.63;5061698;28;20514;-69
2023/05/30 08:40:46;;;;;;;9.98;5.40;;;;;;;19.44;44.60;102533.97;5056064;28;20478;-68
2023/05/30 08:43:11;;;;;;;11.45;5.68;;;;;;;19.64;44.04;102517.41;5059882;28;20052;-69
2023/05/30 08:45:38;;;;;;;9.60;5.18;;;;;;;20.09;43.05;102520.00;5043449;28;20452;-69
2023/05/30 08:48:05;;;;;;;10.25;5.78;;;;;;;20.11;42.15;102518.94;5055319;28;20013;-68
2023/05/30 08:50:31;;;;;;;9.30;5.32;;;;;;;21.05;41.12;102523.56;5055565;28;20099;-69
2023/05/30 08:53:06;;;;;;;10.45;5.78;;;;;;;21.54;40.43;102518.31;5057463;28;20398;-68
2023/05/30 08:55:41;;;;;;;8.45;5.50;;;;;;;22.12;38.76;102515.97;5063768;28;20039;-68
2023/05/30 08:58:25;;;;;;;10.02;6.30;;;;;;;22.77;39.13;102514.75;5058180;28;20020;-67
2023/05/30 09:00:52;;;;;;;12.43;5.28;;;;;;;22.90;36.90;102510.13;5046927;28;20036;-68
2023/05/30 09:03:20;;;;;;;11.80;5.85;;;;;;;23.21;35.82;102514.06;5060815;28;20312;-66
2023/05/30 09:05:46;;;;;;;9.63;5.32;;;;;;;23.73;35.66;102512.69;5061799;28;20289;-67
2023/05/30 09:08:13;;;;;;;8.30;5.35;;;;;;;24.27;34.45;102511.03;5057976;28;20167;-67
2023/05/30 09:10:48;;;;;;;9.43;5.75;;;;;;;24.70;33.53;102508.31;5057952;28;20032;-69
2023/05/30 09:13:16;;;;;;;8.75;5.65;;;;;;;25.00;32.88;102507.56;5060579;28;20028;-67
2023/05/30 09:15:41;;;;;;;8.73;5.63;;;;;;;24.72;32.90;102502.75;5060997;28;20020;-68
2023/05/30 09:18:07;;;;;;;11.38;5.97;;;;;;;24.99;32.62;102500.38;5056602;28;20579;-69
2023/05/30 09:20:32;;;;;;;7.53;5.20;;;;;;;25.06;31.80;102511.63;5058277;28;20036;-68
2023/05/30 09:22:58;;;;;;;10.77;5.45;;;;;;;24.77;31.84;102500.50;5061755;28;20047;-66
2023/05/30 09:25:24;;;;;;;11.40;5.93;;;;;;;24.01;32.74;102502.28;5061900;28;20240;-68
2023/05/30 09:27:52;;;;;;;11.80;5.78;;;;;;;24.45;32.41;102493.19;5045574;28;20017;-68
2023/05/30 09:30:18;;;;;;;11.98;4.95;;;;;;;25.12;32.55;102500.22;5061634;28;20033;-67
2023/05/30 09:33:04;;;;;;;8.90;5.55;;;;;;;26.13;32.37;102501.31;5058952;28;20035;-68
2023/05/30 09:35:29;;;;;;;9.85;5.75;;;;;;;25.48;29.96;102498.00;5059737;28;20181;-69
2023/05/30 09:37:55;;;;;;;10.10;6.38;;;;;;;24.71;31.77;102496.44;5049985;28;20111;-69
2023/05/30 09:40:22;;;;;;;9.50;6.22;;;;;;;24.99;31.68;102494.06;5063007;28;20038;-67
2023/05/30 09:42:52;;;;;;;10.45;6.30;;;;;;;25.18;31.30;102505.16;5061790;28;21474;-67
2023/05/30 09:45:21;;;;;;;12.05;5.97;;;;;;;26.07;30.21;102500.00;5061903;28;20115;-68
2023/05/30 09:47:48;;;;;;;8.43;6.22;;;;;;;26.28;29.06;102495.28;5062311;28;20397;-67
2023/05/30 09:50:16;;;;;;;10.40;6.60;;;;;;;26.09;29.18;102492.53;5045114;28;20013;-67
2023/05/30 09:52:42;;;;;;;9.77;6.07;;;;;;;26.13;30.02;102490.41;5054953;28;20055;-67
2023/05/30 09:55:09;;;;;;;11.55;6.30;;;;;;;26.61;29.57;102495.94;5065457;28;20478;-67
2023/05/30 09:57:37;;;;;;;11.10;6.53;;;;;;;26.58;29.12;102496.22;5063378;28;20028;-66
2023/05/30 10:00:09;;;;;;;10.02;6.18;;;;;;;27.06;29.65;102492.63;5065720;28;20028;-67
2023/05/30 10:02:36;;;;;;;9.68;6.50;;;;;;;27.79;27.88;102488.25;5065962;28;20032;-66
2023/05/30 10:05:03;;;;;;;10.90;6.60;;;;;;;28.08;26.80;102483.66;5046275;28;20702;-66
2023/05/30 10:07:29;;;;;;;10.38;6.40;;;;;;;28.37;26.35;102478.88;5065407;28;20016;-67
2023/05/30 10:09:56;;;;;;;10.05;5.95;;;;;;;28.45;26.43;102489.06;5064154;28;20081;-67
2023/05/30 10:12:23;;;;;;;10.18;6.28;;;;;;;28.18;26.75;102477.13;5063208;28;20506;-67
2023/05/30 10:14:49;;;;;;;14.45;7.22;;;;;;;28.21;25.72;102475.94;5064761;28;20016;-68
2023/05/30 10:17:17;;;;;;;9.10;6.55;;;;;;;28.98;25.42;102469.03;5059411;28;20062;-68
2023/05/30 10:19:49;;;;;;;10.52;7.10;;;;;;;28.61;25.28;102469.19;5063520;28;20044;-66
2023/05/30 10:22:16;;;;;;;8.73;6.38;;;;;;;28.73;25.78;102470.66;5059108;28;20321;-66
2023/05/30 10:24:47;;;;;;;13.07;7.25;;;;;;;28.57;25.86;102470.53;5060629;28;20081;-66
2023/05/30 10:27:21;;;;;;;12.40;6.72;;;;;;;29.07;25.59;102468.06;5068284;28;20069;-67
2023/05/30 10:29:52;;;;;;;9.30;6.88;;;;;;;28.79;24.82;102473.63;5074602;28;20405;-66
2023/05/30 10:32:24;;;;;;;9.30;6.45;;;;;;;28.98;25.68;102474.50;5056438;28;20035;-68
2023/05/30 10:35:05;;;;;;;11.38;6.72;;;;;;;30.24;25.28;102470.19;5064709;28;20073;-66
2023/05/30 10:37:32;;;;;;;8.18;6.47;;;;;;;30.26;24.21;102477.22;5066063;28;20020;-67
2023/05/30 10:40:35;;;;;;;11.70;6.47;;;;;;;30.89;24.78;102466.66;5066118;28;20037;-67
2023/05/30 10:43:20;;;;;;;12.98;6.85;;;;;;;30.41;24.22;102462.84;5060592;28;20032;-67
2023/05/30 10:46:22;;;;;;;10.35;5.90;;;;;;;31.41;24.02;102460.78;5064589;28;20343;-67
2023/05/30 10:48:57;;;;;;;9.30;6.40;;;;;;;31.40;22.77;102453.56;5064327;28;20656;-67
2023/05/30 10:51:22;;;;;;;9.60;6.45;;;;;;;31.67;22.40;102453.09;5060408;28;20302;-67
2023/05/30 10:53:48;;;;;;;8.98;5.63;;;;;;;31.85;21.99;102452.88;5054229;28;20036;-67
2023/05/30 10:56:26;;;;;;;8.88;5.65;;;;;;;31.47;22.88;102449.03;5063946;28;20384;-66
2023/05/30 10:58:53;;;;;;;11.55;6.65;;;;;;;30.27;23.24;102454.25;5064588;28;20553;-67
2023/05/30 11:01:29;;;;;;;10.00;6.50;;;;;;;30.79;22.87;102452.25;5057840;28;20183;-68
2023/05/30 11:04:13;;;;;;;9.35;6.60;;;;;;;31.22;23.15;102445.47;5062597;28;20043;-67
2023/05/30 11:06:46;;;;;;;7.75;6.07;;;;;;;31.08;22.54;102444.31;5056371;28;20028;-67
2023/05/30 11:09:14;;;;;;;8.93;6.13;;;;;;;30.22;23.41;102439.28;5058684;28;20050;-67
2023/05/30 11:11:42;;;;;;;11.82;6.60;;;;;;;29.46;23.96;102446.50;5059928;28;20028;-67
2023/05/30 11:14:10;;;;;;;11.82;6.30;;;;;;;30.10;23.44;102444.22;5060568;28;20031;-68
2023/05/30 11:16:51;;;;;;;11.32;6.53;;;;;;;30.78;23.81;102437.66;5060931;28;20071;-66
2023/05/30 11:19:19;;;;;;;8.55;6.55;;;;;;;30.78;22.41;102432.16;5051164;28;20037;-68
2023/05/30 11:21:53;;;;;;;10.38;6.53;;;;;;;30.95;22.86;102438.50;5050229;28;20562;-68
2023/05/30 11:24:20;;;;;;;11.75;7.35;;;;;;;30.70;22.85;102435.72;5061688;28;20082;-67